Time;durP1;ratioP1;P1;durP2;ratioP2;P2;SDS_P1;SDS_P2;PMS_P1;PMS_P2;Temp;Humidity;BMP_temperature;BMP_pressure;BME280_temperature;BME280_humidity;BME280_pressure;Samples;Min_cycle;Max_cycle;Signal;HPM_P1;HPM_P2
2023/07/20 00:02:07;;;;;;;0.00;0.00;;;;;;;16.07;100.00;101544.84;5053241;28;20040;-45
2023/07/20 00:04:32;;;;;;;0.00;0.00;;;;;;;16.01;100.00;101547.34;5053006;28;20104;-44
2023/07/20 00:06:58;;;;;;;0.00;0.00;;;;;;;16.01;100.00;101546.50;5052320;28;20363;-46
2023/07/20 00:09:24;;;;;;;0.00;0.00;;;;;;;15.94;100.00;101551.06;5052609;28;20036;-46
2023/07/20 00:11:53;;;;;;;0.00;0.00;;;;;;;15.93;100.00;101550.22;5051128;28;20029;-47
2023/07/20 00:14:19;;;;;;;0.00;0.00;;;;;;;15.88;100.00;101551.84;5052260;28;20056;-48
2023/07/20 00:16:55;;;;;;;0.00;0.00;;;;;;;15.85;100.00;101554.94;5052309;28;20056;-46
2023/07/20 00:19:27;;;;;;;0.00;0.00;;;;;;;15.81;100.00;101562.66;5052368;28;20434;-48
2023/07/20 00:21:53;;;;;;;0.00;0.00;;;;;;;15.76;100.00;101560.53;5052226;28;20025;-47
2023/07/20 00:24:18;;;;;;;0.00;0.00;;;;;;;15.74;100.00;101556.34;5052362;28;20025;-46
2023/07/20 00:26:44;;;;;;;0.00;0.00;;;;;;;15.71;100.00;101549.44;5052005;28;20025;-47
2023/07/20 00:29:09;;;;;;;0.00;0.00;;;;;;;15.67;100.00;101548.13;5051012;28;20039;-45
2023/07/20 00:31:36;;;;;;;0.00;0.00;;;;;;;15.66;100.00;101551.88;5052033;28;20125;-45
2023/07/20 00:34:04;;;;;;;0.00;0.00;;;;;;;15.61;100.00;101550.78;5052447;28;20187;-46
2023/07/20 00:36:30;;;;;;;0.00;0.00;;;;;;;15.61;100.00;101546.19;5052543;28;20037;-47
2023/07/20 00:38:55;;;;;;;0.00;0.00;;;;;;;15.50;100.00;101550.28;5052776;28;20471;-48
2023/07/20 00:41:21;;;;;;;0.00;0.00;;;;;;;15.47;100.00;101550.69;5052940;28;20028;-44
2023/07/20 00:43:46;;;;;;;0.00;0.00;;;;;;;15.39;100.00;101545.41;5052812;28;20571;-46
2023/07/20 00:46:12;;;;;;;0.00;0.00;;;;;;;15.35;100.00;101547.69;5052816;28;20032;-46
2023/07/20 00:48:37;;;;;;;0.00;0.00;;;;;;;15.31;100.00;101551.81;5051692;28;20052;-47
2023/07/20 00:51:03;;;;;;;0.00;0.00;;;;;;;15.27;100.00;101542.41;5052349;28;20033;-49
2023/07/20 00:53:28;;;;;;;0.00;0.00;;;;;;;15.26;100.00;101550.72;5050670;28;20063;-47
2023/07/20 00:55:54;;;;;;;0.00;0.00;;;;;;;15.19;100.00;101557.97;5051682;28;20021;-46
2023/07/20 00:58:19;;;;;;;0.00;0.00;;;;;;;15.18;100.00;101556.28;5052304;28;20398;-45
2023/07/20 01:00:47;;;;;;;0.00;0.00;;;;;;;15.15;100.00;101554.81;5051715;28;20041;-48
2023/07/20 01:03:12;;;;;;;0.00;0.00;;;;;;;15.10;100.00;101555.38;5052122;28;20033;-46
2023/07/20 01:05:43;;;;;;;0.00;0.00;;;;;;;15.11;100.00;101545.38;5051941;28;20021;-47
2023/07/20 01:08:34;;;;;;;0.00;0.00;;;;;;;15.07;100.00;101550.38;5051944;28;20485;-46
2023/07/20 01:11:07;;;;;;;0.00;0.00;;;;;;;15.06;100.00;101548.69;5050989;28;20514;-50
2023/07/20 01:13:33;;;;;;;0.00;0.00;;;;;;;15.06;100.00;101548.69;5049890;28;20078;-49
2023/07/20 01:16:01;;;;;;;0.00;0.00;;;;;;;15.03;100.00;101543.63;5051150;28;20029;-51
2023/07/20 01:18:27;;;;;;;0.00;0.00;;;;;;;14.99;100.00;101550.50;5051193;28;20025;-50
2023/07/20 01:20:59;;;;;;;0.00;0.00;;;;;;;15.00;100.00;101557.59;5051322;28;20094;-48
2023/07/20 01:24:18;;;;;;;0.00;0.00;;;;;;;14.92;100.00;101557.72;5049930;28;20025;-47
2023/07/20 01:27:28;;;;;;;0.00;0.00;;;;;;;14.89;100.00;101556.22;5032138;28;20087;-48
2023/07/20 01:30:08;;;;;;;0.00;0.00;;;;;;;14.88;100.00;101556.44;5018584;28;20040;-47
2023/07/20 01:32:34;;;;;;;0.00;0.00;;;;;;;14.89;100.00;101563.53;5049240;28;20036;-47
2023/07/20 01:35:01;;;;;;;0.00;0.00;;;;;;;14.93;100.00;101557.53;5050526;28;20110;-47
2023/07/20 01:37:29;;;;;;;0.00;0.00;;;;;;;14.99;100.00;101561.34;5033549;28;20029;-47
2023/07/20 01:39:55;;;;;;;;;;;;;;;15.11;100.00;101567.94;5051074;28;20028;-46
2023/07/20 01:42:22;;;;;;;0.00;0.00;;;;;;;15.21;100.00;101569.47;5051776;28;19983;-47
2023/07/20 01:44:47;;;;;;;0.00;0.00;;;;;;;15.27;100.00;101568.66;5051401;28;20479;-48
2023/07/20 01:47:12;;;;;;;0.00;0.00;;;;;;;15.30;100.00;101565.59;5051014;28;20050;-50
2023/07/20 01:49:38;;;;;;;0.00;0.00;;;;;;;15.34;100.00;101569.56;5049439;28;20360;-50
2023/07/20 01:52:03;;;;;;;0.00;0.00;;;;;;;15.32;100.00;101561.66;5050622;28;20033;-51
2023/07/20 01:54:29;;;;;;;0.00;0.00;;;;;;;15.32;100.00;101568.94;5050978;28;20087;-47
2023/07/20 01:56:54;;;;;;;0.00;0.00;;;;;;;15.32;100.00;101572.50;5050398;28;20450;-46
2023/07/20 01:59:19;;;;;;;0.00;0.00;;;;;;;15.32;100.00;101564.38;5050461;28;20025;-47
2023/07/20 02:01:45;;;;;;;0.00;0.00;;;;;;;15.32;100.00;101568.94;5050388;28;20436;-49
2023/07/20 02:04:10;;;;;;;0.00;0.00;;;;;;;15.32;100.00;101563.50;5050354;28;20032;-47
2023/07/20 02:06:35;;;;;;;0.00;0.00;;;;;;;15.29;100.00;101562.03;5050527;28;20021;-49
2023/07/20 02:09:01;;;;;;;0.00;0.00;;;;;;;15.31;100.00;101561.84;5050368;28;20102;-49
2023/07/20 02:11:26;;;;;;;0.00;0.00;;;;;;;15.30;100.00;101550.16;5050523;28;20589;-49
2023/07/20 02:13:51;;;;;;;0.00;0.00;;;;;;;15.29;100.00;101551.16;5050427;28;20062;-51
2023/07/20 02:16:17;;;;;;;0.00;0.00;;;;;;;15.24;100.00;101550.09;5050413;28;20099;-49
2023/07/20 02:18:42;;;;;;;0.00;0.00;;;;;;;15.19;100.00;101552.53;5050643;28;20395;-49
2023/07/20 02:21:07;;;;;;;0.00;0.00;;;;;;;15.20;100.00;101555.06;5050424;28;20025;-46
2023/07/20 02:23:33;;;;;;;0.00;0.00;;;;;;;15.17;100.00;101560.88;5050552;28;20031;-45
2023/07/20 02:25:58;;;;;;;0.00;0.00;;;;;;;15.18;100.00;101548.16;5050886;28;20033;-46
2023/07/20 02:28:23;;;;;;;0.00;0.00;;;;;;;15.17;100.00;101558.19;5050887;28;20483;-47
2023/07/20 02:30:49;;;;;;;0.00;0.00;;;;;;;15.18;100.00;101556.28;5051153;28;20116;-48
2023/07/20 02:33:15;;;;;;;0.00;0.00;;;;;;;15.17;100.00;101565.47;5050819;28;20029;-47
2023/07/20 02:35:40;;;;;;;0.00;0.00;;;;;;;15.12;100.00;101557.91;5049819;28;20032;-46
2023/07/20 02:38:06;;;;;;;0.00;0.00;;;;;;;15.07;100.00;101554.94;5051095;28;20029;-46
2023/07/20 02:40:32;;;;;;;0.00;0.00;;;;;;;15.01;100.00;101558.41;5051028;28;20494;-48
2023/07/20 02:42:57;;;;;;;0.00;0.00;;;;;;;14.90;100.00;101559.78;5048923;28;20029;-44
2023/07/20 02:45:23;;;;;;;0.00;0.00;;;;;;;14.85;100.00;101554.09;5050505;28;20499;-48
2023/07/20 02:47:49;;;;;;;0.00;0.00;;;;;;;14.82;100.00;101562.59;5050602;28;20503;-46
2023/07/20 02:50:14;;;;;;;0.00;0.00;;;;;;;14.76;100.00;101560.69;5051005;28;20454;-47
2023/07/20 02:52:39;;;;;;;0.00;0.00;;;;;;;14.75;100.00;101561.72;5050364;28;20060;-46
2023/07/20 02:55:05;;;;;;;0.00;0.00;;;;;;;14.73;100.00;101563.78;5050391;28;20031;-52
2023/07/20 02:57:30;;;;;;;0.00;0.00;;;;;;;14.69;100.00;101569.59;5048631;28;20049;-48
2023/07/20 02:59:56;;;;;;;0.00;0.00;;;;;;;14.67;100.00;101577.06;5050131;28;20029;-51
2023/07/20 03:02:21;;;;;;;0.00;0.00;;;;;;;14.63;100.00;101575.75;5048716;28;20028;-46
2023/07/20 03:04:47;;;;;;;0.00;0.00;;;;;;;14.58;100.00;101580.91;5049897;28;20028;-48
2023/07/20 03:07:12;;;;;;;0.00;0.00;;;;;;;14.53;100.00;101577.91;5050078;28;20032;-48
2023/07/20 03:09:38;;;;;;;0.00;0.00;;;;;;;14.50;100.00;101586.41;5049932;28;20040;-46
2023/07/20 03:12:04;;;;;;;0.00;0.00;;;;;;;14.45;100.00;101589.66;5050899;28;20108;-48
2023/07/20 03:14:30;;;;;;;0.00;0.00;;;;;;;14.39;100.00;101585.00;5053478;28;20514;-47
2023/07/20 03:16:55;;;;;;;0.00;0.00;;;;;;;14.31;100.00;101581.56;5053689;28;20271;-50
2023/07/20 03:19:20;;;;;;;0.00;0.00;;;;;;;14.27;100.00;101587.38;5053717;28;20111;-47
2023/07/20 03:21:46;;;;;;;0.00;0.00;;;;;;;14.28;100.00;101590.91;5053740;28;20036;-50
2023/07/20 03:24:11;;;;;;;0.00;0.00;;;;;;;14.30;100.00;101593.41;5053623;28;20029;-46
2023/07/20 03:26:37;;;;;;;0.00;0.00;;;;;;;14.25;100.00;101597.53;5053601;28;20021;-47
2023/07/20 03:29:04;;;;;;;0.00;0.00;;;;;;;14.23;100.00;101596.06;5053382;28;20420;-49
2023/07/20 03:31:30;;;;;;;;;;;;;;;14.26;100.00;101599.22;5053720;28;20029;-49
2023/07/20 03:33:55;;;;;;;0.00;0.00;;;;;;;14.28;100.00;101599.88;5053357;28;20365;-48
2023/07/20 03:36:21;;;;;;;0.00;0.00;;;;;;;14.28;100.00;101602.56;5053481;28;20387;-48
2023/07/20 03:38:46;;;;;;;0.00;0.00;;;;;;;14.25;100.00;101599.41;5053434;28;20021;-48
2023/07/20 03:41:12;;;;;;;0.00;0.00;;;;;;;14.23;100.00;101602.31;5053433;28;20383;-48
2023/07/20 03:43:37;;;;;;;0.00;0.00;;;;;;;14.21;100.00;101607.06;5053055;28;20029;-49
2023/07/20 03:46:06;;;;;;;0.00;0.00;;;;;;;14.22;100.00;101606.06;5053224;28;20104;-48
2023/07/20 03:48:32;;;;;;;0.00;0.00;;;;;;;14.28;100.00;101604.44;5053128;28;20108;-50
2023/07/20 03:50:58;;;;;;;0.00;0.00;;;;;;;14.30;100.00;101613.25;5053086;28;20507;-46
2023/07/20 03:53:23;;;;;;;0.00;0.00;;;;;;;14.32;100.00;101605.75;5053294;28;20052;-48
2023/07/20 03:55:49;;;;;;;0.00;0.00;;;;;;;14.34;100.00;101603.69;5053187;28;20033;-49
2023/07/20 03:58:15;;;;;;;0.00;0.00;;;;;;;14.30;100.00;101604.25;5051623;28;20052;-49
2023/07/20 04:00:45;;;;;;;0.00;0.00;;;;;;;14.28;100.00;101608.00;5052688;28;20154;-47
2023/07/20 04:03:10;;;;;;;0.00;0.00;;;;;;;14.30;100.00;101601.53;5051277;28;20336;-50
2023/07/20 04:05:35;;;;;;;0.00;0.00;;;;;;;14.30;100.00;101602.41;5052523;28;20025;-50
2023/07/20 04:08:01;;;;;;;0.00;0.00;;;;;;;14.27;100.00;101600.91;5043401;28;20555;-47
2023/07/20 04:10:26;;;;;;;0.00;0.00;;;;;;;14.28;100.00;101608.00;5031274;28;20053;-48
2023/07/20 04:12:51;;;;;;;0.00;0.00;;;;;;;14.35;100.00;101613.50;5032431;28;20334;-49
2023/07/20 04:15:17;;;;;;;0.00;0.00;;;;;;;14.40;100.00;101607.50;5030691;28;20096;-47
2023/07/20 04:17:42;;;;;;;0.00;0.00;;;;;;;14.42;100.00;101611.72;5032825;28;20021;-47
2023/07/20 04:20:08;;;;;;;0.00;0.00;;;;;;;14.52;100.00;101610.59;5032768;28;20108;-48
2023/07/20 04:22:34;;;;;;;0.00;0.00;;;;;;;14.60;100.00;101615.94;5033551;28;20017;-45
2023/07/20 04:24:59;;;;;;;0.00;0.00;;;;;;;14.69;100.00;101621.06;5033925;28;20428;-45
2023/07/20 04:27:24;;;;;;;0.00;0.00;;;;;;;14.77;100.00;101632.81;5033656;28;20044;-45
2023/07/20 04:29:50;;;;;;;0.00;0.00;;;;;;;14.80;100.00;101616.19;5032630;28;20405;-47
2023/07/20 04:32:15;;;;;;;0.00;0.00;;;;;;;14.86;100.00;101623.53;5032314;28;20033;-45
2023/07/20 04:34:41;;;;;;;0.00;0.00;;;;;;;14.86;100.00;101618.94;5030845;28;20108;-46
2023/07/20 04:37:06;;;;;;;0.00;0.00;;;;;;;14.82;100.00;101624.94;5032338;28;20036;-45
2023/07/20 04:39:31;;;;;;;0.00;0.00;;;;;;;14.83;100.00;101623.94;5032166;28;20026;-45
2023/07/20 04:41:57;;;;;;;0.00;0.00;;;;;;;14.84;100.00;101615.59;5032387;28;20030;-48
2023/07/20 04:44:23;;;;;;;0.00;0.00;;;;;;;14.85;100.00;101613.72;5031852;28;20075;-46
2023/07/20 04:46:48;;;;;;;0.00;0.00;;;;;;;14.87;100.00;101625.22;5032071;28;20045;-48
2023/07/20 04:49:14;;;;;;;0.00;0.00;;;;;;;14.86;100.00;101618.13;5031889;28;20091;-47
2023/07/20 04:51:39;;;;;;;0.00;0.00;;;;;;;14.84;100.00;101620.16;5032097;28;20040;-45
2023/07/20 04:54:05;;;;;;;0.00;0.00;;;;;;;14.90;100.00;101622.09;5031940;28;20487;-48
2023/07/20 04:56:30;;;;;;;0.00;0.00;;;;;;;14.93;100.00;101621.75;5031623;28;20076;-48
2023/07/20 04:58:56;;;;;;;0.00;0.00;;;;;;;14.98;100.00;101618.44;5031875;28;20108;-46
2023/07/20 05:01:21;;;;;;;0.00;0.00;;;;;;;15.06;100.00;101624.59;5031600;28;20053;-45
2023/07/20 05:03:46;;;;;;;0.00;0.00;;;;;;;15.19;100.00;101636.59;5031416;28;20018;-48
2023/07/20 05:06:12;;;;;;;0.00;0.00;;;;;;;15.27;100.00;101637.34;5031628;28;20399;-49
2023/07/20 05:08:38;;;;;;;0.00;0.00;;;;;;;15.46;100.00;101638.56;5031467;28;20322;-50
2023/07/20 05:11:04;;;;;;;0.00;0.00;;;;;;;15.70;100.00;101637.31;5031796;28;20065;-47
2023/07/20 05:13:29;;;;;;;0.00;0.00;;;;;;;15.82;100.00;101626.75;5031425;28;20301;-47
2023/07/20 05:15:54;;;;;;;0.00;0.00;;;;;;;15.90;100.00;101626.59;5031266;28;20065;-48
2023/07/20 05:18:20;;;;;;;0.00;0.00;;;;;;;15.97;100.00;101619.34;5031483;28;20030;-51
2023/07/20 05:20:49;;;;;;;0.00;0.00;;;;;;;16.02;100.00;101616.88;5031448;28;20547;-51
2023/07/20 05:23:19;;;;;;;0.00;0.00;;;;;;;16.08;100.00;101604.38;5031453;28;20446;-47
2023/07/20 05:25:44;;;;;;;0.00;0.00;;;;;;;16.10;100.00;101607.75;5031440;28;20018;-48
2023/07/20 05:28:09;;;;;;;0.00;0.00;;;;;;;16.09;100.00;101603.34;5031720;28;20056;-48
2023/07/20 05:30:35;;;;;;;0.00;0.00;;;;;;;16.21;100.00;101590.03;5031170;28;20372;-48
2023/07/20 05:33:00;;;;;;;0.00;0.00;;;;;;;16.38;100.00;101587.84;5031294;28;20030;-46
2023/07/20 05:35:26;;;;;;;0.00;0.00;;;;;;;16.51;100.00;101598.75;5030632;28;20021;-51
2023/07/20 05:37:52;;;;;;;0.00;0.00;;;;;;;16.59;100.00;101597.75;5031340;28;20077;-47
2023/07/20 05:40:21;;;;;;;0.00;0.00;;;;;;;16.76;100.00;101606.38;5030866;28;20041;-45
2023/07/20 05:42:47;;;;;;;0.00;0.00;;;;;;;16.80;100.00;101591.38;5031185;28;20462;-46
2023/07/20 05:45:14;;;;;;;0.37;0.00;;;;;;;16.84;100.00;101584.47;5031024;28;20510;-47
2023/07/20 05:47:39;;;;;;;0.00;0.00;;;;;;;16.94;100.00;101589.50;5030927;28;20040;-48
2023/07/20 05:50:05;;;;;;;0.00;0.00;;;;;;;16.91;100.00;101579.06;5030824;28;20055;-48
2023/07/20 05:52:30;;;;;;;0.00;0.00;;;;;;;17.07;100.00;101584.09;5030766;28;20040;-48
2023/07/20 05:54:56;;;;;;;0.00;0.00;;;;;;;17.20;100.00;101586.00;5030761;28;20041;-46
2023/07/20 05:57:21;;;;;;;0.00;0.00;;;;;;;17.43;100.00;101578.28;5030455;28;20053;-49
2023/07/20 05:59:47;;;;;;;0.00;0.00;;;;;;;17.63;100.00;101580.97;5030844;28;20345;-49
2023/07/20 06:02:12;;;;;;;0.00;0.00;;;;;;;17.80;100.00;101586.00;5030635;28;20107;-48
2023/07/20 06:04:38;;;;;;;0.00;0.00;;;;;;;17.96;100.00;101571.97;5029353;28;20487;-50
2023/07/20 06:07:04;;;;;;;0.00;0.00;;;;;;;18.14;100.00;101557.63;5029223;28;20026;-46
2023/07/20 06:09:30;;;;;;;0.00;0.00;;;;;;;18.27;100.00;101543.13;5030977;28;20025;-48
2023/07/20 06:11:56;;;;;;;0.00;0.00;;;;;;;18.43;100.00;101545.34;5030450;28;20025;-47
2023/07/20 06:14:21;;;;;;;0.00;0.00;;;;;;;18.45;100.00;101524.19;5030343;28;20039;-47
2023/07/20 06:16:47;;;;;;;0.00;0.00;;;;;;;18.46;100.00;101535.91;5028957;28;20083;-48
2023/07/20 06:19:12;;;;;;;0.00;0.00;;;;;;;18.54;100.00;101536.53;5030477;28;20026;-48
2023/07/20 06:21:38;;;;;;;0.00;0.00;;;;;;;18.63;100.00;101534.38;5030510;28;20030;-46
2023/07/20 06:24:04;;;;;;;0.00;0.00;;;;;;;18.89;100.00;101548.94;5030270;28;20045;-49
2023/07/20 06:26:30;;;;;;;0.00;0.00;;;;;;;19.34;100.00;101538.72;5030050;28;20065;-48
2023/07/20 06:28:56;;;;;;;0.00;0.00;;;;;;;20.07;100.00;101534.44;5030172;28;20028;-50
2023/07/20 06:31:21;;;;;;;0.00;0.00;;;;;;;20.91;100.00;101524.50;5030118;28;20033;-49
2023/07/20 06:33:46;;;;;;;0.00;0.00;;;;;;;21.63;100.00;101516.13;5030273;28;20029;-46
2023/07/20 06:36:12;;;;;;;0.00;0.00;;;;;;;22.22;100.00;101509.72;5029293;28;20029;-49
2023/07/20 06:38:37;;;;;;;0.00;0.00;;;;;;;22.72;100.00;101512.63;5030449;28;20030;-47
2023/07/20 06:41:03;;;;;;;0.00;0.00;;;;;;;22.83;100.00;101516.41;5030455;28;20029;-47
2023/07/20 06:43:28;;;;;;;0.00;0.00;;;;;;;22.81;100.00;101515.81;5030066;28;20029;-48
2023/07/20 06:45:54;;;;;;;0.00;0.00;;;;;;;22.71;100.00;101521.09;5030516;28;20057;-47
2023/07/20 06:48:20;;;;;;;0.00;0.00;;;;;;;22.65;100.00;101516.63;5032171;28;20030;-46
2023/07/20 06:50:45;;;;;;;0.00;0.00;;;;;;;23.12;100.00;101524.59;5034414;28;20034;-47
2023/07/20 06:53:10;;;;;;;0.00;0.00;;;;;;;23.64;100.00;101519.66;5034072;28;20025;-47
2023/07/20 06:55:36;;;;;;;0.00;0.00;;;;;;;24.20;100.00;101522.34;5034006;28;20475;-46
2023/07/20 06:58:01;;;;;;;0.00;0.00;;;;;;;24.50;100.00;101521.88;5033708;28;20069;-50
2023/07/20 07:00:26;;;;;;;0.00;0.00;;;;;;;24.91;100.00;101513.19;5034041;28;20025;-46
2023/07/20 07:02:52;;;;;;;0.00;0.00;;;;;;;25.00;100.00;101517.13;5033821;28;20032;-46
2023/07/20 07:05:18;;;;;;;0.00;0.00;;;;;;;25.68;100.00;101530.31;5034188;28;20018;-47
2023/07/20 07:07:43;;;;;;;0.00;0.00;;;;;;;26.20;96.02;101532.28;5033839;28;20403;-47
2023/07/20 07:10:09;;;;;;;0.00;0.00;;;;;;;26.39;90.43;101524.34;5033548;28;20032;-47
2023/07/20 07:12:35;;;;;;;0.00;0.00;;;;;;;26.47;94.09;101529.31;5033858;28;20045;-47
2023/07/20 07:15:01;;;;;;;0.00;0.00;;;;;;;26.63;90.69;101530.22;5033562;28;20128;-47
2023/07/20 07:17:27;;;;;;;0.00;0.00;;;;;;;26.26;89.05;101536.69;5033264;28;20029;-48
2023/07/20 07:19:56;;;;;;;0.00;0.00;;;;;;;25.02;93.95;101534.22;5033892;28;20415;-47
2023/07/20 07:22:21;;;;;;;0.00;0.00;;;;;;;23.45;96.41;101531.97;5033437;28;20068;-47
2023/07/20 07:24:47;;;;;;;0.00;0.00;;;;;;;22.35;100.00;101531.38;5032257;28;20029;-47
2023/07/20 07:27:12;;;;;;;0.00;0.00;;;;;;;21.40;100.00;101529.81;5032380;28;20159;-47
2023/07/20 07:29:38;;;;;;;0.00;0.00;;;;;;;20.55;100.00;101531.75;5033306;28;20525;-49
2023/07/20 07:32:04;;;;;;;0.00;0.00;;;;;;;19.92;100.00;101527.44;5015562;28;20022;-47
2023/07/20 07:34:29;;;;;;;0.00;0.00;;;;;;;19.46;100.00;101523.28;5032138;28;20032;-50
2023/07/20 07:36:54;;;;;;;0.00;0.00;;;;;;;19.09;100.00;101533.28;5033345;28;20523;-50
2023/07/20 07:39:20;;;;;;;0.00;0.00;;;;;;;18.87;100.00;101532.78;5033384;28;20333;-47
2023/07/20 07:41:45;;;;;;;0.00;0.00;;;;;;;18.87;100.00;101540.97;5033326;28;20387;-46
2023/07/20 07:44:11;;;;;;;0.00;0.00;;;;;;;18.81;100.00;101534.50;5031609;28;20117;-47
2023/07/20 07:46:37;;;;;;;0.00;0.00;;;;;;;19.40;100.00;101546.00;5033276;28;20032;-48
2023/07/20 07:49:02;;;;;;;0.00;0.00;;;;;;;19.47;100.00;101541.31;5033075;28;20107;-49
2023/07/20 07:51:27;;;;;;;0.00;0.00;;;;;;;19.44;100.00;101540.94;5033512;28;20114;-46
2023/07/20 07:53:53;;;;;;;0.00;0.00;;;;;;;19.37;100.00;101541.00;5032894;28;20037;-48
2023/07/20 07:56:22;;;;;;;0.00;0.00;;;;;;;19.21;100.00;101544.28;5032904;28;20391;-45
2023/07/20 07:58:51;;;;;;;0.00;0.00;;;;;;;18.96;100.00;101544.28;5032438;28;20341;-48
2023/07/20 08:01:18;;;;;;;0.00;0.00;;;;;;;18.79;100.00;101539.31;5033314;28;20021;-47
2023/07/20 08:03:46;;;;;;;0.00;0.00;;;;;;;18.70;100.00;101539.78;5033007;28;20662;-47
2023/07/20 08:06:12;;;;;;;0.00;0.00;;;;;;;19.50;100.00;101540.03;5033207;28;20056;-45
2023/07/20 08:08:37;;;;;;;0.00;0.00;;;;;;;21.27;100.00;101539.91;5032759;28;20449;-44
2023/07/20 08:11:04;;;;;;;0.00;0.00;;;;;;;23.50;100.00;101547.72;5032732;28;20078;-45
2023/07/20 08:13:29;;;;;;;0.00;0.00;;;;;;;24.36;100.00;101547.28;5032557;28;20044;-45
2023/07/20 08:15:55;;;;;;;0.00;0.00;;;;;;;24.90;94.96;101539.06;5032817;28;20041;-47
2023/07/20 08:18:21;;;;;;;0.00;0.00;;;;;;;25.87;91.66;101531.56;5032509;28;20033;-47
2023/07/20 08:20:47;;;;;;;0.00;0.00;;;;;;;26.74;87.83;101539.34;5030943;28;20018;-45
2023/07/20 08:23:13;;;;;;;0.00;0.00;;;;;;;26.87;87.92;101536.88;5032214;28;20061;-45
2023/07/20 08:25:41;;;;;;;0.00;0.00;;;;;;;27.53;85.77;101536.03;5031115;28;20160;-46
2023/07/20 08:28:07;;;;;;;0.00;0.00;;;;;;;27.58;83.06;101540.75;5030884;28;20037;-46
2023/07/20 08:30:43;;;;;;;0.00;0.00;;;;;;;27.54;82.94;101539.63;5032407;28;20030;-45
2023/07/20 08:33:19;;;;;;;0.00;0.00;;;;;;;27.65;81.56;101546.81;5032291;28;20566;-46
2023/07/20 08:35:44;;;;;;;0.00;0.00;;;;;;;28.29;76.87;101539.69;5032070;28;20050;-48
2023/07/20 08:38:09;;;;;;;0.00;0.00;;;;;;;28.63;72.52;101550.88;5032659;28;20037;-47
2023/07/20 08:40:47;;;;;;;0.00;0.00;;;;;;;27.93;75.13;101555.63;5032746;28;20028;-47
2023/07/20 08:43:14;;;;;;;0.00;0.00;;;;;;;27.43;78.75;101546.28;5032097;28;20026;-46
2023/07/20 08:45:40;;;;;;;0.00;0.00;;;;;;;27.40;74.77;101539.38;5032342;28;20665;-47
2023/07/20 08:48:07;;;;;;;0.00;0.00;;;;;;;26.88;80.23;101541.31;5032519;28;20032;-45
2023/07/20 08:50:33;;;;;;;0.00;0.00;;;;;;;27.40;79.95;101538.56;5032355;28;20029;-49
2023/07/20 08:52:59;;;;;;;0.00;0.00;;;;;;;28.55;74.41;101545.97;5032353;28;20033;-45
2023/07/20 08:55:27;;;;;;;0.00;0.00;;;;;;;28.06;70.07;101543.13;5033544;28;20112;-47
2023/07/20 08:57:55;;;;;;;0.00;0.00;;;;;;;28.55;71.88;101540.41;5033272;28;20767;-46
2023/07/20 09:00:21;;;;;;;0.00;0.00;;;;;;;29.28;73.13;101542.41;5032755;28;20083;-50
2023/07/20 09:02:52;;;;;;;0.00;0.00;;;;;;;29.20;67.43;101536.63;5032071;28;20079;-45
2023/07/20 09:05:18;;;;;;;0.00;0.00;;;;;;;28.94;69.66;101539.59;5032412;28;20053;-44
2023/07/20 09:07:44;;;;;;;0.00;0.00;;;;;;;28.24;72.00;101539.72;5032101;28;20025;-48
2023/07/20 09:10:11;;;;;;;0.00;0.00;;;;;;;27.50;74.25;101544.06;5031095;28;20048;-46
2023/07/20 09:12:38;;;;;;;0.00;0.00;;;;;;;27.51;74.20;101540.19;5031647;28;20021;-47
2023/07/20 09:15:04;;;;;;;;;;;;;;;28.97;70.62;101539.03;5031960;28;20037;-46
2023/07/20 09:17:29;;;;;;;0.00;0.00;;;;;;;29.02;67.72;101533.44;5031531;28;19917;-45
2023/07/20 09:19:54;;;;;;;0.00;0.00;;;;;;;29.20;67.95;101534.72;5031128;28;20101;-49
2023/07/20 09:22:20;;;;;;;0.00;0.00;;;;;;;29.53;65.87;101530.22;5031438;28;20034;-46
2023/07/20 09:24:46;;;;;;;0.00;0.00;;;;;;;29.17;65.90;101531.69;5031118;28;20160;-49
2023/07/20 09:27:12;;;;;;;0.00;0.00;;;;;;;29.24;69.18;101537.72;5030119;28;20036;-48
2023/07/20 09:29:51;;;;;;;0.00;0.00;;;;;;;30.07;64.28;101531.03;5031329;28;20026;-43
2023/07/20 09:32:22;;;;;;;0.00;0.00;;;;;;;30.07;61.97;101532.97;5031342;28;20075;-49
2023/07/20 09:34:51;;;;;;;0.00;0.00;;;;;;;30.98;60.09;101535.59;5031070;28;20021;-48
2023/07/20 09:37:21;;;;;;;0.00;0.00;;;;;;;29.97;58.36;101533.94;5030198;28;20051;-48
2023/07/20 09:39:47;;;;;;;0.00;0.00;;;;;;;28.43;65.49;101529.69;5031242;28;20108;-50
2023/07/20 09:42:13;;;;;;;0.00;0.00;;;;;;;27.28;65.77;101525.88;5031136;28;20083;-47
2023/07/20 09:44:39;;;;;;;0.00;0.00;;;;;;;26.46;70.91;101536.78;5030944;28;20533;-49
2023/07/20 09:47:05;;;;;;;0.00;0.00;;;;;;;25.66;71.92;101533.34;5030833;28;20472;-50
2023/07/20 09:49:31;;;;;;;0.00;0.00;;;;;;;24.27;75.45;101530.38;5029676;28;20033;-47
2023/07/20 09:51:57;;;;;;;0.00;0.00;;;;;;;24.06;78.16;101532.03;5030988;28;20137;-46
2023/07/20 09:54:23;;;;;;;0.00;0.00;;;;;;;24.45;81.41;101537.50;5029672;28;20029;-50
2023/07/20 09:56:51;;;;;;;0.00;0.00;;;;;;;24.44;78.30;101527.56;5029393;28;20077;-49
2023/07/20 09:59:16;;;;;;;0.00;0.00;;;;;;;24.50;79.47;101532.06;5030696;28;20040;-47
2023/07/20 10:01:42;;;;;;;0.00;0.00;;;;;;;24.21;78.55;101534.97;5030426;28;20017;-49
2023/07/20 10:04:09;;;;;;;0.00;0.00;;;;;;;24.30;82.44;101527.97;5029506;28;20030;-49
2023/07/20 10:06:35;;;;;;;0.00;0.00;;;;;;;25.04;80.63;101529.28;5030602;28;20030;-47
2023/07/20 10:09:03;;;;;;;0.00;0.00;;;;;;;26.11;78.52;101528.34;5030688;28;20026;-48
2023/07/20 10:11:34;;;;;;;0.00;0.00;;;;;;;26.60;74.32;101528.00;5030410;28;20029;-49
2023/07/20 10:14:05;;;;;;;0.00;0.00;;;;;;;26.25;71.13;101529.50;5030746;28;20415;-47
2023/07/20 10:16:38;;;;;;;0.00;0.00;;;;;;;26.37;74.05;101532.88;5030435;28;20116;-46
2023/07/20 10:19:07;;;;;;;0.00;0.00;;;;;;;26.83;71.58;101535.78;5045804;28;20030;-48
2023/07/20 10:21:35;;;;;;;0.00;0.00;;;;;;;27.40;72.93;101527.50;5032006;28;20392;-48
2023/07/20 10:24:01;;;;;;;0.00;0.00;;;;;;;28.10;69.06;101536.75;5032820;28;20025;-47
2023/07/20 10:26:26;;;;;;;0.00;0.00;;;;;;;28.40;66.30;101523.84;5050092;28;20174;-46
2023/07/20 10:28:52;;;;;;;0.00;0.00;;;;;;;28.21;67.06;101532.81;5034798;28;20035;-46
2023/07/20 10:31:18;;;;;;;0.00;0.00;;;;;;;27.47;68.95;101537.16;5034597;28;20033;-47
2023/07/20 10:33:44;;;;;;;0.00;0.00;;;;;;;27.23;70.04;101536.91;5034895;28;20032;-45
2023/07/20 10:36:12;;;;;;;0.00;0.00;;;;;;;27.30;69.42;101537.44;5033772;28;20040;-47
2023/07/20 10:38:46;;;;;;;0.00;0.00;;;;;;;27.69;68.32;101531.31;5034923;28;20052;-44
2023/07/20 10:41:24;;;;;;;0.00;0.00;;;;;;;27.56;67.26;101529.13;5035136;28;20025;-44
2023/07/20 10:43:50;;;;;;;0.00;0.00;;;;;;;27.34;68.53;101529.44;5034824;28;20025;-46
2023/07/20 10:46:43;;;;;;;0.00;0.00;;;;;;;27.23;68.79;101525.03;5034721;28;20571;-49
2023/07/20 10:49:10;;;;;;;0.00;0.00;;;;;;;27.49;66.80;101520.28;5034410;28;20430;-46
2023/07/20 10:51:49;;;;;;;0.00;0.00;;;;;;;27.90;66.68;101525.75;5034516;28;20449;-48
2023/07/20 10:54:17;;;;;;;0.00;0.00;;;;;;;28.11;66.15;101527.31;5050196;28;20037;-47
2023/07/20 10:56:48;;;;;;;0.00;0.00;;;;;;;28.32;62.83;101527.22;5034276;28;20543;-47
2023/07/20 10:59:18;;;;;;;0.00;0.00;;;;;;;28.27;65.81;101518.94;5033329;28;20403;-45
2023/07/20 11:01:45;;;;;;;0.00;0.00;;;;;;;28.23;63.75;101519.53;5034932;28;20029;-46
2023/07/20 11:04:10;;;;;;;0.00;0.00;;;;;;;28.70;64.27;101516.50;5034606;28;20090;-45
2023/07/20 11:06:38;;;;;;;0.00;0.00;;;;;;;28.70;62.78;101516.50;5035073;28;20026;-46
2023/07/20 11:09:10;;;;;;;0.00;0.00;;;;;;;29.01;61.41;101512.38;5035086;28;20053;-47
2023/07/20 11:11:37;;;;;;;0.00;0.00;;;;;;;29.62;59.80;101510.16;5034251;28;20018;-47
2023/07/20 11:14:10;;;;;;;0.00;0.00;;;;;;;29.50;62.74;101507.81;5034123;28;20041;-46
2023/07/20 11:16:41;;;;;;;0.08;0.00;;;;;;;29.36;62.85;101513.22;5034380;28;20036;-49
2023/07/20 11:19:16;;;;;;;0.00;0.00;;;;;;;29.32;59.82;101506.59;5034351;28;20247;-46